sensor_id;sensor_type;location;lat;lon;timestamp;P1;durP1;ratioP1;P2;durP2;ratioP2
44358;SDS011;30077;52.474;13.326;2023-05-14T00:04:11;18.92;;;13.48;;
44358;SDS011;30077;52.474;13.326;2023-05-14T00:09:11;16.77;;;12.95;;
44358;SDS011;30077;52.474;13.326;2023-05-14T00:14:12;17.17;;;12.65;;
44358;SDS011;30077;52.474;13.326;2023-05-14T00:19:12;16.90;;;12.35;;
44358;SDS011;30077;52.474;13.326;2023-05-14T00:24:13;16.08;;;12.00;;
44358;SDS011;30077;52.474;13.326;2023-05-14T00:29:14;17.40;;;11.82;;
44358;SDS011;30077;52.474;13.326;2023-05-14T00:34:14;14.27;;;11.77;;
44358;SDS011;30077;52.474;13.326;2023-05-14T00:39:15;17.50;;;12.02;;
44358;SDS011;30077;52.474;13.326;2023-05-14T00:44:15;15.02;;;12.13;;
44358;SDS011;30077;52.474;13.326;2023-05-14T00:49:16;17.10;;;11.82;;
44358;SDS011;30077;52.474;13.326;2023-05-14T00:54:16;18.92;;;11.75;;
44358;SDS011;30077;52.474;13.326;2023-05-14T00:59:18;18.75;;;11.85;;
44358;SDS011;30077;52.474;13.326;2023-05-14T01:04:20;16.25;;;12.75;;
44358;SDS011;30077;52.474;13.326;2023-05-14T01:19:48;18.02;;;11.82;;
44358;SDS011;30077;52.474;13.326;2023-05-14T01:24:50;17.05;;;10.85;;
44358;SDS011;30077;52.474;13.326;2023-05-14T01:35:21;15.20;;;10.80;;
44358;SDS011;30077;52.474;13.326;2023-05-14T01:40:24;13.52;;;10.60;;
44358;SDS011;30077;52.474;13.326;2023-05-14T01:45:24;13.77;;;9.95;;
44358;SDS011;30077;52.474;13.326;2023-05-14T01:50:25;16.70;;;10.40;;
44358;SDS011;30077;52.474;13.326;2023-05-14T01:55:26;12.70;;;9.90;;
44358;SDS011;30077;52.474;13.326;2023-05-14T02:00:26;16.58;;;10.30;;
44358;SDS011;30077;52.474;13.326;2023-05-14T02:05:27;12.10;;;10.00;;
44358;SDS011;30077;52.474;13.326;2023-05-14T02:10:27;12.88;;;9.98;;
44358;SDS011;30077;52.474;13.326;2023-05-14T02:15:28;13.15;;;9.45;;
44358;SDS011;30077;52.474;13.326;2023-05-14T02:20:28;13.15;;;9.15;;
44358;SDS011;30077;52.474;13.326;2023-05-14T02:25:29;16.00;;;9.30;;
44358;SDS011;30077;52.474;13.326;2023-05-14T02:30:29;12.68;;;9.07;;
44358;SDS011;30077;52.474;13.326;2023-05-14T02:35:30;14.25;;;8.93;;
44358;SDS011;30077;52.474;13.326;2023-05-14T02:40:30;9.98;;;8.57;;
44358;SDS011;30077;52.474;13.326;2023-05-14T02:45:31;13.68;;;8.40;;
44358;SDS011;30077;52.474;13.326;2023-05-14T02:50:31;10.98;;;8.52;;
44358;SDS011;30077;52.474;13.326;2023-05-14T02:55:33;11.55;;;8.65;;
44358;SDS011;30077;52.474;13.326;2023-05-14T03:00:34;15.10;;;8.98;;
44358;SDS011;30077;52.474;13.326;2023-05-14T03:05:35;13.73;;;8.05;;
44358;SDS011;30077;52.474;13.326;2023-05-14T03:10:35;17.05;;;8.73;;
44358;SDS011;30077;52.474;13.326;2023-05-14T03:15:36;15.68;;;8.40;;
44358;SDS011;30077;52.474;13.326;2023-05-14T03:20:36;12.23;;;9.55;;
44358;SDS011;30077;52.474;13.326;2023-05-14T03:25:37;15.38;;;9.05;;
44358;SDS011;30077;52.474;13.326;2023-05-14T03:30:37;13.50;;;9.10;;
44358;SDS011;30077;52.474;13.326;2023-05-14T03:35:38;18.95;;;10.07;;
44358;SDS011;30077;52.474;13.326;2023-05-14T03:40:38;12.65;;;8.70;;
44358;SDS011;30077;52.474;13.326;2023-05-14T03:45:39;14.50;;;9.27;;
44358;SDS011;30077;52.474;13.326;2023-05-14T03:50:39;13.07;;;9.55;;
44358;SDS011;30077;52.474;13.326;2023-05-14T03:55:40;13.05;;;9.45;;
44358;SDS011;30077;52.474;13.326;2023-05-14T04:00:41;16.73;;;9.88;;
44358;SDS011;30077;52.474;13.326;2023-05-14T04:05:42;13.82;;;9.65;;
44358;SDS011;30077;52.474;13.326;2023-05-14T04:10:42;13.95;;;9.57;;
44358;SDS011;30077;52.474;13.326;2023-05-14T04:15:43;12.52;;;9.50;;
44358;SDS011;30077;52.474;13.326;2023-05-14T04:20:43;16.70;;;9.35;;
44358;SDS011;30077;52.474;13.326;2023-05-14T04:25:44;13.27;;;9.45;;
44358;SDS011;30077;52.474;13.326;2023-05-14T04:30:44;17.17;;;9.48;;
44358;SDS011;30077;52.474;13.326;2023-05-14T04:35:45;16.30;;;9.20;;
44358;SDS011;30077;52.474;13.326;2023-05-14T04:40:45;12.73;;;9.32;;
44358;SDS011;30077;52.474;13.326;2023-05-14T04:45:46;13.13;;;9.00;;
44358;SDS011;30077;52.474;13.326;2023-05-14T04:50:48;13.43;;;9.50;;
44358;SDS011;30077;52.474;13.326;2023-05-14T04:55:48;17.40;;;9.63;;
44358;SDS011;30077;52.474;13.326;2023-05-14T05:00:49;17.65;;;9.30;;
44358;SDS011;30077;52.474;13.326;2023-05-14T05:05:49;13.65;;;9.57;;
44358;SDS011;30077;52.474;13.326;2023-05-14T05:10:50;11.60;;;9.10;;
44358;SDS011;30077;52.474;13.326;2023-05-14T05:15:51;15.70;;;9.60;;
44358;SDS011;30077;52.474;13.326;2023-05-14T05:20:51;14.88;;;8.82;;
44358;SDS011;30077;52.474;13.326;2023-05-14T05:25:52;14.98;;;10.35;;
44358;SDS011;30077;52.474;13.326;2023-05-14T05:30:52;13.27;;;9.25;;
44358;SDS011;30077;52.474;13.326;2023-05-14T05:35:53;13.27;;;9.30;;
44358;SDS011;30077;52.474;13.326;2023-05-14T05:40:53;13.48;;;9.18;;
44358;SDS011;30077;52.474;13.326;2023-05-14T05:45:54;14.10;;;9.23;;
44358;SDS011;30077;52.474;13.326;2023-05-14T05:50:55;13.32;;;9.85;;
44358;SDS011;30077;52.474;13.326;2023-05-14T05:55:55;18.05;;;9.32;;
44358;SDS011;30077;52.474;13.326;2023-05-14T06:00:56;13.02;;;8.98;;
44358;SDS011;30077;52.474;13.326;2023-05-14T06:05:57;17.48;;;10.05;;
44358;SDS011;30077;52.474;13.326;2023-05-14T06:10:57;16.40;;;9.13;;
44358;SDS011;30077;52.474;13.326;2023-05-14T06:15:58;13.25;;;9.18;;
44358;SDS011;30077;52.474;13.326;2023-05-14T06:20:58;14.90;;;9.05;;
44358;SDS011;30077;52.474;13.326;2023-05-14T06:25:59;10.60;;;7.97;;
44358;SDS011;30077;52.474;13.326;2023-05-14T06:30:59;15.05;;;9.05;;
44358;SDS011;30077;52.474;13.326;2023-05-14T06:36:02;17.30;;;8.55;;
44358;SDS011;30077;52.474;13.326;2023-05-14T06:41:03;14.25;;;8.48;;
44358;SDS011;30077;52.474;13.326;2023-05-14T06:46:04;10.60;;;7.90;;
44358;SDS011;30077;52.474;13.326;2023-05-14T06:51:04;13.75;;;9.20;;
44358;SDS011;30077;52.474;13.326;2023-05-14T06:56:05;15.77;;;10.25;;
44358;SDS011;30077;52.474;13.326;2023-05-14T07:01:05;11.70;;;8.57;;
44358;SDS011;30077;52.474;13.326;2023-05-14T07:06:06;13.80;;;7.88;;
44358;SDS011;30077;52.474;13.326;2023-05-14T07:11:06;14.90;;;8.05;;
44358;SDS011;30077;52.474;13.326;2023-05-14T07:16:07;12.25;;;8.27;;
44358;SDS011;30077;52.474;13.326;2023-05-14T07:21:09;11.13;;;7.40;;
44358;SDS011;30077;52.474;13.326;2023-05-14T07:26:09;12.32;;;7.70;;
44358;SDS011;30077;52.474;13.326;2023-05-14T07:31:10;11.90;;;7.18;;
44358;SDS011;30077;52.474;13.326;2023-05-14T07:36:10;10.52;;;6.32;;
44358;SDS011;30077;52.474;13.326;2023-05-14T07:41:11;12.43;;;6.32;;
44358;SDS011;30077;52.474;13.326;2023-05-14T07:46:13;9.02;;;6.80;;
44358;SDS011;30077;52.474;13.326;2023-05-14T07:51:14;8.57;;;5.70;;
44358;SDS011;30077;52.474;13.326;2023-05-14T07:56:14;10.65;;;6.72;;
44358;SDS011;30077;52.474;13.326;2023-05-14T08:01:15;11.38;;;6.20;;
44358;SDS011;30077;52.474;13.326;2023-05-14T08:06:15;7.88;;;5.72;;
44358;SDS011;30077;52.474;13.326;2023-05-14T08:11:16;6.15;;;5.38;;
44358;SDS011;30077;52.474;13.326;2023-05-14T08:16:16;8.70;;;5.60;;
44358;SDS011;30077;52.474;13.326;2023-05-14T08:21:17;7.80;;;5.47;;
44358;SDS011;30077;52.474;13.326;2023-05-14T08:26:17;7.13;;;4.88;;
44358;SDS011;30077;52.474;13.326;2023-05-14T08:31:18;14.15;;;8.05;;
44358;SDS011;30077;52.474;13.326;2023-05-14T08:36:18;8.95;;;5.47;;
44358;SDS011;30077;52.474;13.326;2023-05-14T08:41:19;6.15;;;5.13;;
44358;SDS011;30077;52.474;13.326;2023-05-14T08:46:21;6.95;;;6.03;;
44358;SDS011;30077;52.474;13.326;2023-05-14T08:51:23;9.55;;;5.00;;
44358;SDS011;30077;52.474;13.326;2023-05-14T08:56:25;6.47;;;4.80;;
44358;SDS011;30077;52.474;13.326;2023-05-14T09:01:26;7.60;;;4.32;;
44358;SDS011;30077;52.474;13.326;2023-05-14T09:06:28;7.43;;;5.10;;
44358;SDS011;30077;52.474;13.326;2023-05-14T09:11:29;6.13;;;4.80;;
44358;SDS011;30077;52.474;13.326;2023-05-14T09:16:30;7.75;;;5.13;;
44358;SDS011;30077;52.474;13.326;2023-05-14T09:21:31;9.32;;;5.15;;
44358;SDS011;30077;52.474;13.326;2023-05-14T09:26:32;10.93;;;5.35;;
44358;SDS011;30077;52.474;13.326;2023-05-14T09:31:33;11.70;;;7.00;;
44358;SDS011;30077;52.474;13.326;2023-05-14T09:36:37;5.90;;;4.30;;
44358;SDS011;30077;52.474;13.326;2023-05-14T09:41:38;5.65;;;4.28;;
44358;SDS011;30077;52.474;13.326;2023-05-14T09:46:40;9.45;;;5.03;;
44358;SDS011;30077;52.474;13.326;2023-05-14T09:51:40;6.22;;;4.40;;
44358;SDS011;30077;52.474;13.326;2023-05-14T09:56:42;7.82;;;4.55;;
44358;SDS011;30077;52.474;13.326;2023-05-14T10:01:42;8.07;;;5.00;;
44358;SDS011;30077;52.474;13.326;2023-05-14T10:06:44;8.25;;;5.15;;
44358;SDS011;30077;52.474;13.326;2023-05-14T10:11:49;11.65;;;5.55;;
44358;SDS011;30077;52.474;13.326;2023-05-14T10:16:54;7.88;;;5.03;;
44358;SDS011;30077;52.474;13.326;2023-05-14T10:22:04;10.45;;;4.85;;
44358;SDS011;30077;52.474;13.326;2023-05-14T10:27:07;10.05;;;5.00;;
44358;SDS011;30077;52.474;13.326;2023-05-14T10:32:07;8.43;;;4.55;;
44358;SDS011;30077;52.474;13.326;2023-05-14T10:37:09;8.00;;;5.10;;
44358;SDS011;30077;52.474;13.326;2023-05-14T10:42:22;9.10;;;5.10;;
44358;SDS011;30077;52.474;13.326;2023-05-14T10:47:26;9.50;;;5.47;;
44358;SDS011;30077;52.474;13.326;2023-05-14T10:52:28;9.67;;;5.33;;
44358;SDS011;30077;52.474;13.326;2023-05-14T10:57:29;10.15;;;5.40;;
44358;SDS011;30077;52.474;13.326;2023-05-14T11:02:31;11.77;;;5.00;;
44358;SDS011;30077;52.474;13.326;2023-05-14T11:07:33;5.85;;;4.65;;
44358;SDS011;30077;52.474;13.326;2023-05-14T11:12:37;10.73;;;5.30;;
44358;SDS011;30077;52.474;13.326;2023-05-14T11:17:40;5.55;;;4.90;;
44358;SDS011;30077;52.474;13.326;2023-05-14T11:22:41;7.70;;;5.15;;
44358;SDS011;30077;52.474;13.326;2023-05-14T11:27:43;7.63;;;5.17;;
44358;SDS011;30077;52.474;13.326;2023-05-14T11:32:46;10.53;;;5.13;;
44358;SDS011;30077;52.474;13.326;2023-05-14T11:37:48;8.88;;;5.18;;
44358;SDS011;30077;52.474;13.326;2023-05-14T11:42:52;10.32;;;5.60;;
44358;SDS011;30077;52.474;13.326;2023-05-14T11:47:53;9.05;;;5.80;;
44358;SDS011;30077;52.474;13.326;2023-05-14T11:52:56;10.45;;;5.40;;
44358;SDS011;30077;52.474;13.326;2023-05-14T11:57:57;10.90;;;5.20;;
44358;SDS011;30077;52.474;13.326;2023-05-14T12:02:57;12.93;;;5.43;;
44358;SDS011;30077;52.474;13.326;2023-05-14T12:07:58;13.38;;;5.95;;
44358;SDS011;30077;52.474;13.326;2023-05-14T12:12:58;8.85;;;5.85;;
44358;SDS011;30077;52.474;13.326;2023-05-14T12:17:59;7.82;;;5.75;;
44358;SDS011;30077;52.474;13.326;2023-05-14T12:22:59;8.60;;;5.88;;
44358;SDS011;30077;52.474;13.326;2023-05-14T12:28:00;6.43;;;5.05;;
44358;SDS011;30077;52.474;13.326;2023-05-14T12:33:01;11.65;;;5.75;;
44358;SDS011;30077;52.474;13.326;2023-05-14T12:38:02;6.72;;;5.65;;
44358;SDS011;30077;52.474;13.326;2023-05-14T12:43:03;6.07;;;4.90;;
44358;SDS011;30077;52.474;13.326;2023-05-14T12:48:03;9.07;;;6.05;;
44358;SDS011;30077;52.474;13.326;2023-05-14T12:53:04;13.55;;;6.50;;
44358;SDS011;30077;52.474;13.326;2023-05-14T12:58:04;10.93;;;5.90;;
44358;SDS011;30077;52.474;13.326;2023-05-14T13:03:05;7.28;;;5.35;;
44358;SDS011;30077;52.474;13.326;2023-05-14T13:08:05;6.78;;;5.03;;
44358;SDS011;30077;52.474;13.326;2023-05-14T13:13:06;21.73;;;15.88;;
44358;SDS011;30077;52.474;13.326;2023-05-14T13:18:06;8.93;;;5.53;;
44358;SDS011;30077;52.474;13.326;2023-05-14T13:23:07;14.68;;;7.07;;
44358;SDS011;30077;52.474;13.326;2023-05-14T13:28:07;12.93;;;5.65;;
44358;SDS011;30077;52.474;13.326;2023-05-14T13:33:08;7.88;;;5.10;;
44358;SDS011;30077;52.474;13.326;2023-05-14T13:38:08;8.05;;;5.43;;
44358;SDS011;30077;52.474;13.326;2023-05-14T13:43:09;7.82;;;5.63;;
44358;SDS011;30077;52.474;13.326;2023-05-14T13:48:09;8.88;;;5.32;;
44358;SDS011;30077;52.474;13.326;2023-05-14T13:53:10;7.82;;;5.82;;
44358;SDS011;30077;52.474;13.326;2023-05-14T13:58:10;8.18;;;5.22;;
44358;SDS011;30077;52.474;13.326;2023-05-14T14:03:11;7.15;;;4.75;;
44358;SDS011;30077;52.474;13.326;2023-05-14T14:08:12;8.63;;;5.53;;
44358;SDS011;30077;52.474;13.326;2023-05-14T14:13:12;8.90;;;4.82;;
44358;SDS011;30077;52.474;13.326;2023-05-14T14:18:13;6.72;;;5.20;;
44358;SDS011;30077;52.474;13.326;2023-05-14T14:23:13;11.15;;;5.22;;
44358;SDS011;30077;52.474;13.326;2023-05-14T14:28:14;8.65;;;4.75;;
44358;SDS011;30077;52.474;13.326;2023-05-14T14:33:14;7.63;;;5.32;;
44358;SDS011;30077;52.474;13.326;2023-05-14T14:38:15;7.15;;;4.90;;
44358;SDS011;30077;52.474;13.326;2023-05-14T14:43:15;7.55;;;4.70;;
44358;SDS011;30077;52.474;13.326;2023-05-14T14:48:26;6.85;;;4.72;;
44358;SDS011;30077;52.474;13.326;2023-05-14T14:53:30;12.70;;;6.72;;
44358;SDS011;30077;52.474;13.326;2023-05-14T14:58:31;10.90;;;5.40;;
44358;SDS011;30077;52.474;13.326;2023-05-14T15:03:32;10.88;;;5.45;;
44358;SDS011;30077;52.474;13.326;2023-05-14T15:08:33;7.63;;;4.95;;
44358;SDS011;30077;52.474;13.326;2023-05-14T15:13:34;7.25;;;4.68;;
44358;SDS011;30077;52.474;13.326;2023-05-14T15:18:34;6.70;;;4.30;;
44358;SDS011;30077;52.474;13.326;2023-05-14T15:23:35;9.30;;;4.65;;
44358;SDS011;30077;52.474;13.326;2023-05-14T15:28:35;6.35;;;4.50;;
44358;SDS011;30077;52.474;13.326;2023-05-14T15:33:36;6.13;;;4.50;;
44358;SDS011;30077;52.474;13.326;2023-05-14T15:38:36;6.03;;;4.10;;
44358;SDS011;30077;52.474;13.326;2023-05-14T15:43:37;6.97;;;4.75;;
44358;SDS011;30077;52.474;13.326;2023-05-14T15:48:37;5.75;;;3.95;;
44358;SDS011;30077;52.474;13.326;2023-05-14T15:53:38;7.22;;;4.10;;
44358;SDS011;30077;52.474;13.326;2023-05-14T15:58:38;6.78;;;4.93;;
44358;SDS011;30077;52.474;13.326;2023-05-14T16:03:39;7.88;;;4.03;;
44358;SDS011;30077;52.474;13.326;2023-05-14T16:08:39;11.95;;;8.48;;
44358;SDS011;30077;52.474;13.326;2023-05-14T16:13:40;13.85;;;8.45;;
44358;SDS011;30077;52.474;13.326;2023-05-14T16:18:40;6.10;;;4.35;;
44358;SDS011;30077;52.474;13.326;2023-05-14T16:23:42;5.88;;;5.18;;
44358;SDS011;30077;52.474;13.326;2023-05-14T16:28:42;7.72;;;4.85;;
44358;SDS011;30077;52.474;13.326;2023-05-14T16:33:43;8.02;;;4.90;;
44358;SDS011;30077;52.474;13.326;2023-05-14T16:38:44;6.33;;;4.83;;
44358;SDS011;30077;52.474;13.326;2023-05-14T16:43:47;11.23;;;5.57;;
44358;SDS011;30077;52.474;13.326;2023-05-14T16:48:47;5.95;;;4.75;;
44358;SDS011;30077;52.474;13.326;2023-05-14T16:53:49;8.10;;;5.30;;
44358;SDS011;30077;52.474;13.326;2023-05-14T16:58:50;7.20;;;4.32;;
44358;SDS011;30077;52.474;13.326;2023-05-14T17:03:50;5.95;;;4.88;;
44358;SDS011;30077;52.474;13.326;2023-05-14T17:08:50;8.10;;;5.05;;
44358;SDS011;30077;52.474;13.326;2023-05-14T17:13:51;7.28;;;4.93;;
44358;SDS011;30077;52.474;13.326;2023-05-14T17:18:51;7.80;;;5.07;;
44358;SDS011;30077;52.474;13.326;2023-05-14T17:23:52;6.85;;;4.70;;
44358;SDS011;30077;52.474;13.326;2023-05-14T17:28:53;10.15;;;5.45;;
44358;SDS011;30077;52.474;13.326;2023-05-14T17:33:53;7.65;;;4.80;;
44358;SDS011;30077;52.474;13.326;2023-05-14T17:38:55;8.52;;;5.68;;
44358;SDS011;30077;52.474;13.326;2023-05-14T17:43:56;19.15;;;10.50;;
44358;SDS011;30077;52.474;13.326;2023-05-14T17:48:56;10.48;;;6.43;;
44358;SDS011;30077;52.474;13.326;2023-05-14T17:53:57;6.13;;;4.80;;
44358;SDS011;30077;52.474;13.326;2023-05-14T17:58:57;12.13;;;6.75;;
44358;SDS011;30077;52.474;13.326;2023-05-14T18:03:58;6.95;;;5.30;;
44358;SDS011;30077;52.474;13.326;2023-05-14T18:08:59;10.52;;;5.38;;
44358;SDS011;30077;52.474;13.326;2023-05-14T18:13:59;11.98;;;5.85;;
44358;SDS011;30077;52.474;13.326;2023-05-14T18:19:00;8.55;;;6.05;;
44358;SDS011;30077;52.474;13.326;2023-05-14T18:24:00;7.07;;;4.90;;
44358;SDS011;30077;52.474;13.326;2023-05-14T18:29:01;7.70;;;5.68;;
44358;SDS011;30077;52.474;13.326;2023-05-14T18:34:01;5.88;;;4.60;;
44358;SDS011;30077;52.474;13.326;2023-05-14T18:39:02;6.43;;;5.28;;
44358;SDS011;30077;52.474;13.326;2023-05-14T18:44:02;9.20;;;5.57;;
44358;SDS011;30077;52.474;13.326;2023-05-14T18:49:03;7.20;;;5.57;;
44358;SDS011;30077;52.474;13.326;2023-05-14T18:54:03;7.05;;;5.40;;
44358;SDS011;30077;52.474;13.326;2023-05-14T18:59:04;7.43;;;5.55;;
44358;SDS011;30077;52.474;13.326;2023-05-14T19:04:04;8.57;;;6.05;;
44358;SDS011;30077;52.474;13.326;2023-05-14T19:09:05;9.77;;;6.25;;
44358;SDS011;30077;52.474;13.326;2023-05-14T19:14:06;11.45;;;7.55;;
44358;SDS011;30077;52.474;13.326;2023-05-14T19:19:07;10.57;;;6.70;;
44358;SDS011;30077;52.474;13.326;2023-05-14T19:24:08;11.63;;;7.72;;
44358;SDS011;30077;52.474;13.326;2023-05-14T19:29:08;10.75;;;7.35;;
44358;SDS011;30077;52.474;13.326;2023-05-14T19:34:10;12.15;;;8.50;;
44358;SDS011;30077;52.474;13.326;2023-05-14T19:39:10;13.68;;;8.77;;
44358;SDS011;30077;52.474;13.326;2023-05-14T19:44:11;24.33;;;14.55;;
44358;SDS011;30077;52.474;13.326;2023-05-14T19:49:11;24.23;;;13.23;;
44358;SDS011;30077;52.474;13.326;2023-05-14T19:54:12;14.70;;;9.50;;
44358;SDS011;30077;52.474;13.326;2023-05-14T19:59:13;17.38;;;10.55;;
44358;SDS011;30077;52.474;13.326;2023-05-14T20:04:14;13.85;;;9.80;;
44358;SDS011;30077;52.474;13.326;2023-05-14T20:09:15;13.60;;;9.30;;
44358;SDS011;30077;52.474;13.326;2023-05-14T20:14:15;21.17;;;9.95;;
44358;SDS011;30077;52.474;13.326;2023-05-14T20:19:15;14.90;;;9.93;;
44358;SDS011;30077;52.474;13.326;2023-05-14T20:24:16;14.48;;;10.07;;
44358;SDS011;30077;52.474;13.326;2023-05-14T20:29:17;14.40;;;9.93;;
44358;SDS011;30077;52.474;13.326;2023-05-14T20:34:17;16.55;;;9.48;;
44358;SDS011;30077;52.474;13.326;2023-05-14T20:39:18;14.45;;;9.60;;
44358;SDS011;30077;52.474;13.326;2023-05-14T20:44:18;19.35;;;10.73;;
44358;SDS011;30077;52.474;13.326;2023-05-14T20:49:19;21.42;;;11.90;;
44358;SDS011;30077;52.474;13.326;2023-05-14T20:54:19;17.70;;;11.32;;
44358;SDS011;30077;52.474;13.326;2023-05-14T20:59:20;18.73;;;12.77;;
44358;SDS011;30077;52.474;13.326;2023-05-14T21:04:20;20.05;;;12.40;;
44358;SDS011;30077;52.474;13.326;2023-05-14T21:09:20;19.60;;;12.57;;
44358;SDS011;30077;52.474;13.326;2023-05-14T21:14:22;16.93;;;10.93;;
44358;SDS011;30077;52.474;13.326;2023-05-14T21:19:23;21.58;;;14.88;;
44358;SDS011;30077;52.474;13.326;2023-05-14T21:24:23;17.33;;;10.77;;
44358;SDS011;30077;52.474;13.326;2023-05-14T21:29:24;19.25;;;12.95;;
44358;SDS011;30077;52.474;13.326;2023-05-14T21:34:24;25.15;;;16.10;;
44358;SDS011;30077;52.474;13.326;2023-05-14T21:39:25;26.40;;;17.17;;
44358;SDS011;30077;52.474;13.326;2023-05-14T21:44:25;14.30;;;9.98;;
44358;SDS011;30077;52.474;13.326;2023-05-14T21:49:26;20.83;;;11.40;;
44358;SDS011;30077;52.474;13.326;2023-05-14T21:54:26;14.40;;;10.00;;
44358;SDS011;30077;52.474;13.326;2023-05-14T21:59:26;13.55;;;9.43;;
44358;SDS011;30077;52.474;13.326;2023-05-14T22:04:27;15.73;;;9.43;;
44358;SDS011;30077;52.474;13.326;2023-05-14T22:09:27;15.25;;;10.63;;
44358;SDS011;30077;52.474;13.326;2023-05-14T22:14:29;14.82;;;10.85;;
44358;SDS011;30077;52.474;13.326;2023-05-14T22:19:29;15.50;;;9.93;;
44358;SDS011;30077;52.474;13.326;2023-05-14T22:24:30;16.20;;;10.38;;
44358;SDS011;30077;52.474;13.326;2023-05-14T22:29:30;16.65;;;11.52;;
44358;SDS011;30077;52.474;13.326;2023-05-14T22:34:31;16.10;;;11.90;;
44358;SDS011;30077;52.474;13.326;2023-05-14T22:39:31;15.02;;;11.93;;
44358;SDS011;30077;52.474;13.326;2023-05-14T22:44:32;13.90;;;10.60;;
44358;SDS011;30077;52.474;13.326;2023-05-14T22:49:32;17.45;;;11.98;;
44358;SDS011;30077;52.474;13.326;2023-05-14T22:54:33;18.20;;;13.02;;
44358;SDS011;30077;52.474;13.326;2023-05-14T22:59:33;19.27;;;12.95;;
44358;SDS011;30077;52.474;13.326;2023-05-14T23:04:34;22.63;;;12.77;;
44358;SDS011;30077;52.474;13.326;2023-05-14T23:09:34;18.17;;;13.15;;
44358;SDS011;30077;52.474;13.326;2023-05-14T23:14:35;15.55;;;11.70;;
44358;SDS011;30077;52.474;13.326;2023-05-14T23:19:35;17.23;;;11.93;;
44358;SDS011;30077;52.474;13.326;2023-05-14T23:24:36;15.32;;;11.05;;
44358;SDS011;30077;52.474;13.326;2023-05-14T23:29:36;20.45;;;12.00;;
44358;SDS011;30077;52.474;13.326;2023-05-14T23:34:37;22.02;;;13.00;;
44358;SDS011;30077;52.474;13.326;2023-05-14T23:39:37;17.92;;;12.43;;
44358;SDS011;30077;52.474;13.326;2023-05-14T23:44:38;17.02;;;11.80;;
44358;SDS011;30077;52.474;13.326;2023-05-14T23:49:38;20.30;;;11.98;;
44358;SDS011;30077;52.474;13.326;2023-05-14T23:54:39;16.60;;;12.68;;
44358;SDS011;30077;52.474;13.326;2023-05-14T23:59:40;15.40;;;12.05;;
